sensor_id;sensor_type;location;lat;lon;timestamp;P1;durP1;ratioP1;P2;durP2;ratioP2
51020;SDS011;38907;45.562;8.856;2023-03-31T00:00:00;6.80;;;3.40;;
51020;SDS011;38907;45.562;8.856;2023-03-31T00:05:04;7.68;;;3.67;;
51020;SDS011;38907;45.562;8.856;2023-03-31T00:10:07;6.13;;;2.70;;
51020;SDS011;38907;45.562;8.856;2023-03-31T00:15:10;4.33;;;2.80;;
51020;SDS011;38907;45.562;8.856;2023-03-31T00:20:13;6.32;;;3.03;;
51020;SDS011;38907;45.562;8.856;2023-03-31T00:25:16;6.15;;;2.58;;
51020;SDS011;38907;45.562;8.856;2023-03-31T00:30:18;6.43;;;2.60;;
51020;SDS011;38907;45.562;8.856;2023-03-31T00:35:21;4.50;;;2.63;;
51020;SDS011;38907;45.562;8.856;2023-03-31T00:40:23;6.63;;;3.08;;
51020;SDS011;38907;45.562;8.856;2023-03-31T00:45:26;4.97;;;2.28;;
51020;SDS011;38907;45.562;8.856;2023-03-31T00:50:31;5.60;;;2.42;;
51020;SDS011;38907;45.562;8.856;2023-03-31T00:55:37;10.60;;;2.33;;
51020;SDS011;38907;45.562;8.856;2023-03-31T01:00:41;4.07;;;2.60;;
51020;SDS011;38907;45.562;8.856;2023-03-31T01:05:46;3.55;;;2.30;;
51020;SDS011;38907;45.562;8.856;2023-03-31T01:10:51;5.03;;;2.13;;
51020;SDS011;38907;45.562;8.856;2023-03-31T01:15:54;7.03;;;2.70;;
51020;SDS011;38907;45.562;8.856;2023-03-31T01:26:34;7.25;;;2.50;;
51020;SDS011;38907;45.562;8.856;2023-03-31T01:31:52;9.80;;;2.60;;
51020;SDS011;38907;45.562;8.856;2023-03-31T01:37:22;3.42;;;2.30;;
51020;SDS011;38907;45.562;8.856;2023-03-31T01:42:51;4.75;;;2.10;;
51020;SDS011;38907;45.562;8.856;2023-03-31T01:47:56;7.75;;;2.90;;
51020;SDS011;38907;45.562;8.856;2023-03-31T01:53:02;5.55;;;3.10;;
51020;SDS011;38907;45.562;8.856;2023-03-31T01:58:12;4.75;;;2.85;;
51020;SDS011;38907;45.562;8.856;2023-03-31T02:03:21;4.13;;;2.70;;
51020;SDS011;38907;45.562;8.856;2023-03-31T02:08:28;13.90;;;3.47;;
51020;SDS011;38907;45.562;8.856;2023-03-31T02:13:35;6.50;;;3.60;;
51020;SDS011;38907;45.562;8.856;2023-03-31T02:18:43;9.65;;;3.75;;
51020;SDS011;38907;45.562;8.856;2023-03-31T02:23:49;14.63;;;4.32;;
51020;SDS011;38907;45.562;8.856;2023-03-31T02:28:53;7.43;;;3.38;;
51020;SDS011;38907;45.562;8.856;2023-03-31T02:33:55;10.30;;;3.30;;
51020;SDS011;38907;45.562;8.856;2023-03-31T02:38:58;6.95;;;3.25;;
51020;SDS011;38907;45.562;8.856;2023-03-31T02:44:04;6.30;;;3.70;;
51020;SDS011;38907;45.562;8.856;2023-03-31T02:49:06;6.65;;;3.40;;
51020;SDS011;38907;45.562;8.856;2023-03-31T02:54:17;7.78;;;3.83;;
51020;SDS011;38907;45.562;8.856;2023-03-31T02:59:35;6.93;;;3.60;;
51020;SDS011;38907;45.562;8.856;2023-03-31T03:04:50;7.85;;;3.67;;
51020;SDS011;38907;45.562;8.856;2023-03-31T03:10:05;9.70;;;3.65;;
51020;SDS011;38907;45.562;8.856;2023-03-31T03:15:12;9.00;;;3.63;;
51020;SDS011;38907;45.562;8.856;2023-03-31T03:20:18;6.15;;;3.70;;
51020;SDS011;38907;45.562;8.856;2023-03-31T03:25:21;6.20;;;3.30;;
51020;SDS011;38907;45.562;8.856;2023-03-31T03:30:24;7.65;;;3.10;;
51020;SDS011;38907;45.562;8.856;2023-03-31T03:35:26;6.22;;;4.00;;
51020;SDS011;38907;45.562;8.856;2023-03-31T03:40:28;9.05;;;3.92;;
51020;SDS011;38907;45.562;8.856;2023-03-31T03:45:31;6.57;;;3.42;;
51020;SDS011;38907;45.562;8.856;2023-03-31T03:50:34;11.57;;;4.55;;
51020;SDS011;38907;45.562;8.856;2023-03-31T03:55:37;10.15;;;3.90;;
51020;SDS011;38907;45.562;8.856;2023-03-31T04:00:40;6.63;;;4.10;;
51020;SDS011;38907;45.562;8.856;2023-03-31T04:05:45;8.02;;;3.55;;
51020;SDS011;38907;45.562;8.856;2023-03-31T04:10:49;8.25;;;3.83;;
51020;SDS011;38907;45.562;8.856;2023-03-31T04:15:52;11.25;;;3.83;;
51020;SDS011;38907;45.562;8.856;2023-03-31T04:26:03;5.80;;;3.60;;
51020;SDS011;38907;45.562;8.856;2023-03-31T04:31:09;10.68;;;3.53;;
51020;SDS011;38907;45.562;8.856;2023-03-31T04:36:14;9.82;;;4.43;;
51020;SDS011;38907;45.562;8.856;2023-03-31T04:41:17;14.40;;;5.90;;
51020;SDS011;38907;45.562;8.856;2023-03-31T04:46:21;12.30;;;6.35;;
51020;SDS011;38907;45.562;8.856;2023-03-31T04:51:22;9.45;;;5.60;;
51020;SDS011;38907;45.562;8.856;2023-03-31T04:56:24;17.90;;;6.60;;
51020;SDS011;38907;45.562;8.856;2023-03-31T05:01:28;10.23;;;5.93;;
51020;SDS011;38907;45.562;8.856;2023-03-31T05:06:32;8.15;;;3.53;;
51020;SDS011;38907;45.562;8.856;2023-03-31T05:11:34;8.27;;;3.05;;
51020;SDS011;38907;45.562;8.856;2023-03-31T05:16:38;10.75;;;3.17;;
51020;SDS011;38907;45.562;8.856;2023-03-31T05:21:40;6.82;;;3.30;;
51020;SDS011;38907;45.562;8.856;2023-03-31T05:26:42;6.20;;;3.22;;
51020;SDS011;38907;45.562;8.856;2023-03-31T05:31:51;7.10;;;3.30;;
51020;SDS011;38907;45.562;8.856;2023-03-31T05:36:53;8.77;;;3.53;;
51020;SDS011;38907;45.562;8.856;2023-03-31T05:41:55;11.98;;;4.70;;
51020;SDS011;38907;45.562;8.856;2023-03-31T05:46:58;11.25;;;4.57;;
51020;SDS011;38907;45.562;8.856;2023-03-31T05:52:00;11.55;;;5.57;;
51020;SDS011;38907;45.562;8.856;2023-03-31T05:57:02;13.95;;;5.63;;
51020;SDS011;38907;45.562;8.856;2023-03-31T06:02:06;9.10;;;6.07;;
51020;SDS011;38907;45.562;8.856;2023-03-31T06:07:08;23.35;;;9.82;;
51020;SDS011;38907;45.562;8.856;2023-03-31T06:12:10;10.10;;;6.53;;
51020;SDS011;38907;45.562;8.856;2023-03-31T06:17:13;12.07;;;5.82;;
51020;SDS011;38907;45.562;8.856;2023-03-31T06:22:15;12.00;;;6.18;;
51020;SDS011;38907;45.562;8.856;2023-03-31T06:27:17;28.75;;;10.48;;
51020;SDS011;38907;45.562;8.856;2023-03-31T06:32:20;21.92;;;9.43;;
51020;SDS011;38907;45.562;8.856;2023-03-31T06:37:22;16.35;;;7.30;;
51020;SDS011;38907;45.562;8.856;2023-03-31T06:42:24;10.68;;;6.70;;
51020;SDS011;38907;45.562;8.856;2023-03-31T06:47:27;9.63;;;6.30;;
51020;SDS011;38907;45.562;8.856;2023-03-31T06:52:29;9.32;;;5.82;;
51020;SDS011;38907;45.562;8.856;2023-03-31T06:57:31;23.27;;;7.22;;
51020;SDS011;38907;45.562;8.856;2023-03-31T07:02:35;20.80;;;5.82;;
51020;SDS011;38907;45.562;8.856;2023-03-31T07:12:38;5.93;;;3.60;;
51020;SDS011;38907;45.562;8.856;2023-03-31T07:17:41;6.47;;;3.72;;
51020;SDS011;38907;45.562;8.856;2023-03-31T07:22:44;10.13;;;2.85;;
51020;SDS011;38907;45.562;8.856;2023-03-31T07:27:47;10.30;;;2.92;;
51020;SDS011;38907;45.562;8.856;2023-03-31T07:32:50;7.20;;;3.40;;
51020;SDS011;38907;45.562;8.856;2023-03-31T07:37:53;11.77;;;3.55;;
51020;SDS011;38907;45.562;8.856;2023-03-31T07:42:55;7.80;;;3.00;;
51020;SDS011;38907;45.562;8.856;2023-03-31T07:47:58;6.32;;;2.25;;
51020;SDS011;38907;45.562;8.856;2023-03-31T07:53:00;13.15;;;2.78;;
51020;SDS011;38907;45.562;8.856;2023-03-31T07:58:02;6.90;;;2.67;;
51020;SDS011;38907;45.562;8.856;2023-03-31T08:03:06;9.38;;;2.65;;
51020;SDS011;38907;45.562;8.856;2023-03-31T08:08:07;9.75;;;2.95;;
51020;SDS011;38907;45.562;8.856;2023-03-31T08:13:09;9.77;;;3.80;;
51020;SDS011;38907;45.562;8.856;2023-03-31T08:18:12;8.82;;;3.60;;
51020;SDS011;38907;45.562;8.856;2023-03-31T08:23:15;7.28;;;3.45;;
51020;SDS011;38907;45.562;8.856;2023-03-31T08:28:16;5.78;;;3.60;;
51020;SDS011;38907;45.562;8.856;2023-03-31T08:33:20;7.95;;;3.42;;
51020;SDS011;38907;45.562;8.856;2023-03-31T08:38:22;9.77;;;3.50;;
51020;SDS011;38907;45.562;8.856;2023-03-31T08:43:25;7.68;;;3.72;;
51020;SDS011;38907;45.562;8.856;2023-03-31T08:48:33;11.05;;;3.22;;
51020;SDS011;38907;45.562;8.856;2023-03-31T08:53:44;7.37;;;3.20;;
51020;SDS011;38907;45.562;8.856;2023-03-31T08:58:50;9.55;;;2.60;;
51020;SDS011;38907;45.562;8.856;2023-03-31T09:04:04;6.07;;;3.28;;
51020;SDS011;38907;45.562;8.856;2023-03-31T09:09:21;11.43;;;2.72;;
51020;SDS011;38907;45.562;8.856;2023-03-31T09:14:33;4.83;;;2.60;;
51020;SDS011;38907;45.562;8.856;2023-03-31T09:19:40;10.63;;;3.40;;
51020;SDS011;38907;45.562;8.856;2023-03-31T09:24:50;8.88;;;2.78;;
51020;SDS011;38907;45.562;8.856;2023-03-31T09:29:57;9.68;;;3.50;;
51020;SDS011;38907;45.562;8.856;2023-03-31T09:35:13;8.55;;;2.92;;
51020;SDS011;38907;45.562;8.856;2023-03-31T09:40:18;7.25;;;2.95;;
51020;SDS011;38907;45.562;8.856;2023-03-31T09:45:21;5.82;;;2.90;;
51020;SDS011;38907;45.562;8.856;2023-03-31T09:50:24;10.13;;;3.35;;
51020;SDS011;38907;45.562;8.856;2023-03-31T09:55:30;7.07;;;3.42;;
51020;SDS011;38907;45.562;8.856;2023-03-31T10:00:37;11.00;;;4.20;;
51020;SDS011;38907;45.562;8.856;2023-03-31T10:05:48;10.25;;;3.40;;
51020;SDS011;38907;45.562;8.856;2023-03-31T10:10:52;11.43;;;4.00;;
51020;SDS011;38907;45.562;8.856;2023-03-31T10:16:00;11.48;;;3.10;;
51020;SDS011;38907;45.562;8.856;2023-03-31T10:21:06;16.13;;;3.50;;
51020;SDS011;38907;45.562;8.856;2023-03-31T10:26:16;11.80;;;3.38;;
51020;SDS011;38907;45.562;8.856;2023-03-31T10:31:23;6.00;;;3.25;;
51020;SDS011;38907;45.562;8.856;2023-03-31T10:36:28;5.43;;;3.40;;
51020;SDS011;38907;45.562;8.856;2023-03-31T10:41:30;6.32;;;3.78;;
51020;SDS011;38907;45.562;8.856;2023-03-31T10:46:40;9.80;;;4.17;;
51020;SDS011;38907;45.562;8.856;2023-03-31T10:51:48;12.00;;;3.97;;
51020;SDS011;38907;45.562;8.856;2023-03-31T10:56:53;9.60;;;3.83;;
51020;SDS011;38907;45.562;8.856;2023-03-31T11:02:01;9.20;;;4.20;;
51020;SDS011;38907;45.562;8.856;2023-03-31T11:07:19;7.97;;;3.83;;
51020;SDS011;38907;45.562;8.856;2023-03-31T11:12:39;9.05;;;4.10;;
51020;SDS011;38907;45.562;8.856;2023-03-31T11:17:55;11.82;;;3.63;;
51020;SDS011;38907;45.562;8.856;2023-03-31T11:23:23;7.03;;;4.00;;
51020;SDS011;38907;45.562;8.856;2023-03-31T11:28:34;7.32;;;3.78;;
51020;SDS011;38907;45.562;8.856;2023-03-31T11:33:52;10.43;;;3.90;;
51020;SDS011;38907;45.562;8.856;2023-03-31T11:39:13;10.13;;;3.97;;
51020;SDS011;38907;45.562;8.856;2023-03-31T11:44:23;9.65;;;4.03;;
51020;SDS011;38907;45.562;8.856;2023-03-31T11:49:31;10.40;;;3.63;;
51020;SDS011;38907;45.562;8.856;2023-03-31T11:54:40;8.45;;;4.00;;
51020;SDS011;38907;45.562;8.856;2023-03-31T11:59:48;8.90;;;4.05;;
51020;SDS011;38907;45.562;8.856;2023-03-31T12:04:55;7.43;;;3.60;;
51020;SDS011;38907;45.562;8.856;2023-03-31T12:10:02;7.47;;;3.80;;
51020;SDS011;38907;45.562;8.856;2023-03-31T12:15:16;8.75;;;3.63;;
51020;SDS011;38907;45.562;8.856;2023-03-31T12:20:24;6.60;;;3.65;;
51020;SDS011;38907;45.562;8.856;2023-03-31T12:25:35;8.82;;;4.55;;
51020;SDS011;38907;45.562;8.856;2023-03-31T12:30:44;15.75;;;6.90;;
51020;SDS011;38907;45.562;8.856;2023-03-31T12:41:14;15.95;;;6.57;;
51020;SDS011;38907;45.562;8.856;2023-03-31T12:46:29;10.70;;;6.85;;
51020;SDS011;38907;45.562;8.856;2023-03-31T12:51:48;12.68;;;7.20;;
51020;SDS011;38907;45.562;8.856;2023-03-31T12:57:11;20.73;;;6.82;;
51020;SDS011;38907;45.562;8.856;2023-03-31T13:02:19;14.48;;;6.10;;
51020;SDS011;38907;45.562;8.856;2023-03-31T13:07:39;11.48;;;6.05;;
51020;SDS011;38907;45.562;8.856;2023-03-31T13:12:53;15.57;;;5.80;;
51020;SDS011;38907;45.562;8.856;2023-03-31T13:18:04;14.23;;;5.03;;
51020;SDS011;38907;45.562;8.856;2023-03-31T13:28:23;9.80;;;4.60;;
51020;SDS011;38907;45.562;8.856;2023-03-31T13:33:30;13.50;;;4.78;;
51020;SDS011;38907;45.562;8.856;2023-03-31T13:38:40;13.70;;;5.10;;
51020;SDS011;38907;45.562;8.856;2023-03-31T13:43:56;11.32;;;6.22;;
51020;SDS011;38907;45.562;8.856;2023-03-31T13:49:26;14.25;;;5.20;;
51020;SDS011;38907;45.562;8.856;2023-03-31T14:00:22;15.80;;;6.00;;
51020;SDS011;38907;45.562;8.856;2023-03-31T14:05:30;14.10;;;5.70;;
51020;SDS011;38907;45.562;8.856;2023-03-31T14:10:38;13.80;;;5.10;;
51020;SDS011;38907;45.562;8.856;2023-03-31T14:15:44;16.35;;;5.40;;
51020;SDS011;38907;45.562;8.856;2023-03-31T14:20:52;19.95;;;6.75;;
51020;SDS011;38907;45.562;8.856;2023-03-31T14:26:00;11.43;;;4.43;;
51020;SDS011;38907;45.562;8.856;2023-03-31T14:31:10;10.40;;;4.70;;
51020;SDS011;38907;45.562;8.856;2023-03-31T14:36:21;10.32;;;5.95;;
51020;SDS011;38907;45.562;8.856;2023-03-31T14:41:28;15.85;;;5.80;;
51020;SDS011;38907;45.562;8.856;2023-03-31T14:46:34;14.23;;;6.10;;
51020;SDS011;38907;45.562;8.856;2023-03-31T14:51:41;16.85;;;5.45;;
51020;SDS011;38907;45.562;8.856;2023-03-31T14:56:44;11.23;;;5.15;;
51020;SDS011;38907;45.562;8.856;2023-03-31T15:01:50;14.90;;;5.55;;
51020;SDS011;38907;45.562;8.856;2023-03-31T15:11:55;20.00;;;7.47;;
51020;SDS011;38907;45.562;8.856;2023-03-31T15:17:00;20.52;;;8.27;;
51020;SDS011;38907;45.562;8.856;2023-03-31T15:22:07;19.33;;;8.60;;
51020;SDS011;38907;45.562;8.856;2023-03-31T15:27:13;14.55;;;8.65;;
51020;SDS011;38907;45.562;8.856;2023-03-31T15:32:21;18.02;;;9.25;;
51020;SDS011;38907;45.562;8.856;2023-03-31T15:37:26;14.90;;;8.90;;
51020;SDS011;38907;45.562;8.856;2023-03-31T15:42:31;19.27;;;9.45;;
51020;SDS011;38907;45.562;8.856;2023-03-31T15:47:35;20.45;;;9.02;;
51020;SDS011;38907;45.562;8.856;2023-03-31T15:52:38;17.83;;;9.73;;
51020;SDS011;38907;45.562;8.856;2023-03-31T15:57:47;25.02;;;9.95;;
51020;SDS011;38907;45.562;8.856;2023-03-31T16:02:51;16.40;;;9.53;;
51020;SDS011;38907;45.562;8.856;2023-03-31T16:07:53;21.63;;;10.32;;
51020;SDS011;38907;45.562;8.856;2023-03-31T16:12:57;18.58;;;10.50;;
51020;SDS011;38907;45.562;8.856;2023-03-31T16:18:03;19.48;;;11.20;;
51020;SDS011;38907;45.562;8.856;2023-03-31T16:23:12;16.30;;;10.25;;
51020;SDS011;38907;45.562;8.856;2023-03-31T16:28:16;16.85;;;10.55;;
51020;SDS011;38907;45.562;8.856;2023-03-31T16:33:22;19.35;;;11.20;;
51020;SDS011;38907;45.562;8.856;2023-03-31T16:38:25;17.33;;;10.85;;
51020;SDS011;38907;45.562;8.856;2023-03-31T16:43:28;18.75;;;12.15;;
51020;SDS011;38907;45.562;8.856;2023-03-31T16:48:34;18.75;;;12.25;;
51020;SDS011;38907;45.562;8.856;2023-03-31T16:53:35;15.60;;;10.68;;
51020;SDS011;38907;45.562;8.856;2023-03-31T16:58:38;16.45;;;11.13;;
51020;SDS011;38907;45.562;8.856;2023-03-31T17:03:43;16.05;;;10.50;;
51020;SDS011;38907;45.562;8.856;2023-03-31T17:08:44;22.70;;;12.10;;
51020;SDS011;38907;45.562;8.856;2023-03-31T17:13:46;25.38;;;12.70;;
51020;SDS011;38907;45.562;8.856;2023-03-31T17:18:50;25.48;;;15.95;;
51020;SDS011;38907;45.562;8.856;2023-03-31T17:23:52;27.75;;;16.70;;
51020;SDS011;38907;45.562;8.856;2023-03-31T17:28:54;23.42;;;13.77;;
51020;SDS011;38907;45.562;8.856;2023-03-31T17:33:57;22.17;;;13.50;;
51020;SDS011;38907;45.562;8.856;2023-03-31T17:39:00;33.03;;;13.38;;
51020;SDS011;38907;45.562;8.856;2023-03-31T17:44:04;21.77;;;12.25;;
51020;SDS011;38907;45.562;8.856;2023-03-31T17:49:09;22.17;;;11.70;;
51020;SDS011;38907;45.562;8.856;2023-03-31T17:54:10;17.48;;;13.32;;
51020;SDS011;38907;45.562;8.856;2023-03-31T17:59:12;23.23;;;11.52;;
51020;SDS011;38907;45.562;8.856;2023-03-31T18:04:15;18.98;;;11.70;;
51020;SDS011;38907;45.562;8.856;2023-03-31T18:09:17;19.23;;;11.38;;
51020;SDS011;38907;45.562;8.856;2023-03-31T18:14:19;15.13;;;11.00;;
51020;SDS011;38907;45.562;8.856;2023-03-31T18:19:22;14.23;;;10.38;;
51020;SDS011;38907;45.562;8.856;2023-03-31T18:24:24;13.57;;;10.88;;
51020;SDS011;38907;45.562;8.856;2023-03-31T18:29:26;15.82;;;10.73;;
51020;SDS011;38907;45.562;8.856;2023-03-31T18:34:33;17.67;;;11.60;;
51020;SDS011;38907;45.562;8.856;2023-03-31T18:39:35;19.90;;;11.32;;
51020;SDS011;38907;45.562;8.856;2023-03-31T18:44:37;17.95;;;11.30;;
51020;SDS011;38907;45.562;8.856;2023-03-31T18:49:40;16.45;;;11.57;;
51020;SDS011;38907;45.562;8.856;2023-03-31T18:54:42;17.08;;;11.88;;
51020;SDS011;38907;45.562;8.856;2023-03-31T18:59:44;19.58;;;12.85;;
51020;SDS011;38907;45.562;8.856;2023-03-31T19:04:50;17.73;;;12.27;;
51020;SDS011;38907;45.562;8.856;2023-03-31T19:09:53;20.42;;;13.50;;
51020;SDS011;38907;45.562;8.856;2023-03-31T19:14:55;15.13;;;10.40;;
51020;SDS011;38907;45.562;8.856;2023-03-31T19:19:58;16.48;;;11.30;;
51020;SDS011;38907;45.562;8.856;2023-03-31T19:25:00;12.05;;;10.40;;
51020;SDS011;38907;45.562;8.856;2023-03-31T19:30:03;14.25;;;10.68;;
51020;SDS011;38907;45.562;8.856;2023-03-31T19:35:07;8.25;;;7.00;;
51020;SDS011;38907;45.562;8.856;2023-03-31T19:45:11;6.80;;;4.78;;
51020;SDS011;38907;45.562;8.856;2023-03-31T19:50:14;6.30;;;5.53;;
51020;SDS011;38907;45.562;8.856;2023-03-31T19:55:16;9.82;;;5.80;;
51020;SDS011;38907;45.562;8.856;2023-03-31T20:00:19;7.30;;;5.95;;
51020;SDS011;38907;45.562;8.856;2023-03-31T20:05:22;7.45;;;5.07;;
51020;SDS011;38907;45.562;8.856;2023-03-31T20:10:24;7.47;;;5.95;;
51020;SDS011;38907;45.562;8.856;2023-03-31T20:15:26;8.30;;;6.60;;
51020;SDS011;38907;45.562;8.856;2023-03-31T20:20:29;7.72;;;6.10;;
51020;SDS011;38907;45.562;8.856;2023-03-31T20:25:33;10.38;;;7.22;;
51020;SDS011;38907;45.562;8.856;2023-03-31T20:30:36;9.93;;;7.47;;
51020;SDS011;38907;45.562;8.856;2023-03-31T20:35:39;11.23;;;7.10;;
51020;SDS011;38907;45.562;8.856;2023-03-31T20:45:50;11.80;;;7.23;;
51020;SDS011;38907;45.562;8.856;2023-03-31T20:50:55;10.73;;;8.13;;
51020;SDS011;38907;45.562;8.856;2023-03-31T20:55:57;14.27;;;9.50;;
51020;SDS011;38907;45.562;8.856;2023-03-31T21:00:59;14.35;;;9.65;;
51020;SDS011;38907;45.562;8.856;2023-03-31T21:06:02;13.15;;;7.88;;
51020;SDS011;38907;45.562;8.856;2023-03-31T21:11:05;13.93;;;8.13;;
51020;SDS011;38907;45.562;8.856;2023-03-31T21:16:07;18.40;;;11.10;;
51020;SDS011;38907;45.562;8.856;2023-03-31T21:21:11;16.35;;;10.82;;
51020;SDS011;38907;45.562;8.856;2023-03-31T21:26:15;19.60;;;11.80;;
51020;SDS011;38907;45.562;8.856;2023-03-31T21:31:17;18.75;;;12.80;;
51020;SDS011;38907;45.562;8.856;2023-03-31T21:36:24;25.40;;;14.00;;
51020;SDS011;38907;45.562;8.856;2023-03-31T21:41:27;17.92;;;12.05;;
51020;SDS011;38907;45.562;8.856;2023-03-31T21:51:34;16.02;;;12.18;;
51020;SDS011;38907;45.562;8.856;2023-03-31T21:56:36;15.48;;;11.50;;
51020;SDS011;38907;45.562;8.856;2023-03-31T22:01:38;17.02;;;11.02;;
51020;SDS011;38907;45.562;8.856;2023-03-31T22:06:41;16.42;;;10.57;;
51020;SDS011;38907;45.562;8.856;2023-03-31T22:11:43;18.60;;;11.90;;
51020;SDS011;38907;45.562;8.856;2023-03-31T22:16:45;16.70;;;11.10;;
51020;SDS011;38907;45.562;8.856;2023-03-31T22:21:49;16.02;;;11.13;;
51020;SDS011;38907;45.562;8.856;2023-03-31T22:26:50;14.02;;;10.25;;
51020;SDS011;38907;45.562;8.856;2023-03-31T22:31:52;16.45;;;11.25;;
51020;SDS011;38907;45.562;8.856;2023-03-31T22:36:55;14.60;;;10.88;;
51020;SDS011;38907;45.562;8.856;2023-03-31T22:41:57;13.32;;;10.55;;
51020;SDS011;38907;45.562;8.856;2023-03-31T22:46:59;17.05;;;10.63;;
51020;SDS011;38907;45.562;8.856;2023-03-31T22:52:03;15.63;;;10.38;;
51020;SDS011;38907;45.562;8.856;2023-03-31T22:57:05;15.25;;;9.63;;
51020;SDS011;38907;45.562;8.856;2023-03-31T23:02:07;16.67;;;8.43;;
51020;SDS011;38907;45.562;8.856;2023-03-31T23:07:10;9.75;;;7.68;;
51020;SDS011;38907;45.562;8.856;2023-03-31T23:12:14;12.05;;;8.10;;
51020;SDS011;38907;45.562;8.856;2023-03-31T23:17:16;10.70;;;7.20;;
51020;SDS011;38907;45.562;8.856;2023-03-31T23:22:19;7.95;;;6.45;;
51020;SDS011;38907;45.562;8.856;2023-03-31T23:27:24;12.13;;;5.63;;
51020;SDS011;38907;45.562;8.856;2023-03-31T23:32:26;7.55;;;4.57;;
51020;SDS011;38907;45.562;8.856;2023-03-31T23:37:29;4.78;;;4.10;;
51020;SDS011;38907;45.562;8.856;2023-03-31T23:42:31;6.00;;;4.47;;
51020;SDS011;38907;45.562;8.856;2023-03-31T23:47:33;5.72;;;4.88;;
51020;SDS011;38907;45.562;8.856;2023-03-31T23:52:40;6.25;;;4.20;;
51020;SDS011;38907;45.562;8.856;2023-03-31T23:57:42;6.47;;;4.10;;
